Portada
METAR-TAF:

METAR-TAF

Aeroports :

Sari, Iran

latitud: 36-38-09N, longitud: 53-11-37E, altitud: 11 m

Observació

L'informe es va fer fa 39 minuts, a les 08:00 UTC
Vent 2 kt del Nord
Temperatura 19°C
Humitat 60%
Pressió 1025 hPa
Visibilitat 10 km o més
Escasses núvols a una alçada de 3000 ft

METAR: OINZ 120800Z 01002KT 9999 FEW030 19/11 Q1025

Hora: 12:09 (08:39 UTC)


TAF: manca

Observacions i pronòstics meteorològics de més de 4000 aeroports (METAR i TAF).

Les estacions disponibles són els punts grocs i vermells al mapa.

Posi el ratolí al punt desitjat per veure el nom de l'estació.

Feu clic per veure les observacions i els pronòstics meteorològics.

Per canviar el mapa: feu clic els botons verds amb una creu de color negre per apropar; al botó verd amb un guió per allunyar la imatge; o en les fletxes verdes per a mapes adjacents.


METAR-TAF: